Time;durP1;ratioP1;P1;durP2;ratioP2;P2;SDS_P1;SDS_P2;PMS_P1;PMS_P2;Temp;Humidity;BMP_temperature;BMP_pressure;BME280_temperature;BME280_humidity;BME280_pressure;Samples;Min_cycle;Max_cycle;Signal;HPM_P1;HPM_P2
2021/09/21 00:01:35;;;;;;;11.60;7.53;;;14.00;66.70;;;;;;5046554;28;20101;-40
2021/09/21 00:04:26;;;;;;;11.73;7.57;;;13.90;66.60;;;;;;5046408;28;20354;-40
2021/09/21 00:07:10;;;;;;;10.82;7.32;;;13.90;66.40;;;;;;5046220;28;20093;-39
2021/09/21 00:09:54;;;;;;;10.25;7.00;;;13.90;66.40;;;;;;5046588;28;20032;-40
2021/09/21 00:12:39;;;;;;;10.68;7.47;;;13.90;66.30;;;;;;5046027;28;20036;-40
2021/09/21 00:15:23;;;;;;;10.73;7.00;;;13.90;66.40;;;;;;5045862;28;20031;-40
2021/09/21 00:18:08;;;;;;;11.43;7.38;;;13.80;66.60;;;;;;5046299;28;20056;-39
2021/09/21 00:20:52;;;;;;;11.10;7.63;;;13.80;66.70;;;;;;5045860;28;20259;-39
2021/09/21 00:23:36;;;;;;;12.23;7.85;;;13.80;67.10;;;;;;5046002;28;20072;-40
2021/09/21 00:26:20;;;;;;;11.02;7.40;;;13.80;67.20;;;;;;5045711;28;20048;-40
2021/09/21 00:29:07;;;;;;;11.10;7.43;;;13.80;67.50;;;;;;5045592;28;20075;-40
2021/09/21 00:31:59;;;;;;;13.57;7.57;;;13.80;67.70;;;;;;5045503;28;20067;-39
2021/09/21 00:34:43;;;;;;;11.60;7.22;;;13.80;67.70;;;;;;5045532;28;20088;-39
2021/09/21 00:37:28;;;;;;;9.95;7.03;;;13.80;68.10;;;;;;5045495;28;20237;-40
2021/09/21 00:40:12;;;;;;;11.45;7.50;;;13.80;68.40;;;;;;5045408;28;20099;-39
2021/09/21 00:43:03;;;;;;;12.02;7.68;;;13.80;68.60;;;;;;5045296;28;20064;-40
2021/09/21 00:45:52;;;;;;;13.35;7.45;;;13.80;68.90;;;;;;5045337;28;20039;-39
2021/09/21 00:48:36;;;;;;;11.65;6.90;;;13.80;68.60;;;;;;5045486;28;20092;-40
2021/09/21 00:51:21;;;;;;;11.90;7.75;;;13.80;68.50;;;;;;5045098;28;20033;-40
2021/09/21 00:54:05;;;;;;;11.95;7.03;;;13.80;68.70;;;;;;5046421;28;20032;-39
2021/09/21 00:56:49;;;;;;;10.15;6.63;;;13.80;68.70;;;;;;5045235;28;20036;-39
2021/09/21 00:59:33;;;;;;;12.73;7.47;;;13.80;69.30;;;;;;5045589;28;20065;-40
2021/09/21 01:02:18;;;;;;;10.13;7.00;;;13.80;69.50;;;;;;5045434;28;20052;-40
2021/09/21 01:05:03;;;;;;;10.55;6.78;;;13.80;69.40;;;;;;5045337;28;20257;-40
2021/09/21 01:07:47;;;;;;;12.13;7.07;;;13.80;69.30;;;;;;5045195;28;20099;-40
2021/09/21 01:10:32;;;;;;;10.43;7.00;;;13.80;69.30;;;;;;5045059;28;20040;-39
2021/09/21 01:13:15;;;;;;;10.15;6.78;;;13.80;69.70;;;;;;5045014;28;20036;-40
2021/09/21 01:16:00;;;;;;;11.52;7.20;;;13.80;69.60;;;;;;5044898;28;20081;-40
2021/09/21 01:18:44;;;;;;;10.45;6.68;;;13.90;69.40;;;;;;5045042;28;20055;-40
2021/09/21 01:21:28;;;;;;;13.77;7.60;;;13.90;69.20;;;;;;5043554;28;20033;-40
2021/09/21 01:24:13;;;;;;;11.95;7.25;;;13.80;69.40;;;;;;5044789;28;20233;-40
2021/09/21 01:26:57;;;;;;;10.10;7.18;;;13.80;69.40;;;;;;5044662;28;20036;-40
2021/09/21 01:29:42;;;;;;;10.70;7.28;;;13.70;70.30;;;;;;5044587;28;20071;-40
2021/09/21 01:32:26;;;;;;;13.30;7.38;;;13.80;70.20;;;;;;5045001;28;20252;-40
2021/09/21 01:35:11;;;;;;;13.23;7.40;;;13.80;69.60;;;;;;5044678;28;20075;-40
2021/09/21 01:37:55;;;;;;;10.65;7.03;;;13.80;69.40;;;;;;5044285;28;20040;-40
2021/09/21 01:40:40;;;;;;;9.90;7.05;;;13.80;69.50;;;;;;5044167;28;20364;-40
2021/09/21 01:43:24;;;;;;;10.95;6.82;;;13.80;69.40;;;;;;5044210;28;20305;-40
2021/09/21 01:46:22;;;;;;;11.73;7.47;;;13.80;69.60;;;;;;5044243;28;20343;-40
2021/09/21 01:49:06;;;;;;;11.13;6.80;;;13.90;69.40;;;;;;5044226;28;20391;-40
2021/09/21 01:52:01;;;;;;;11.88;7.47;;;13.90;69.30;;;;;;5044111;28;20048;-39
2021/09/21 02:00:54;;;;;;;12.77;7.47;;;13.70;70.70;;;;;;5043949;28;20096;-40
2021/09/21 02:03:38;;;;;;;13.07;7.68;;;13.80;70.60;;;;;;5043929;28;20032;-40
2021/09/21 02:06:32;;;;;;;11.07;7.50;;;13.90;70.40;;;;;;5044134;28;20052;-40
2021/09/21 02:09:16;;;;;;;13.38;7.60;;;13.90;70.20;;;;;;5043816;28;20212;-40
2021/09/21 02:12:00;;;;;;;13.18;7.68;;;13.90;70.30;;;;;;5044283;28;20216;-39
2021/09/21 02:14:44;;;;;;;11.93;7.85;;;13.90;69.90;;;;;;5044522;28;20060;-40
2021/09/21 02:17:29;;;;;;;11.60;7.05;;;14.00;69.90;;;;;;5044299;28;20072;-40
2021/09/21 02:20:13;;;;;;;10.80;6.85;;;14.00;69.90;;;;;;5044099;28;20052;-40
2021/09/21 02:22:57;;;;;;;11.98;7.82;;;13.90;70.50;;;;;;5043698;28;20049;-40
2021/09/21 02:25:42;;;;;;;14.68;7.20;;;13.90;70.60;;;;;;5043902;28;20048;-40
2021/09/21 02:28:26;;;;;;;11.05;7.30;;;14.00;70.30;;;;;;5043658;28;20344;-40
2021/09/21 02:31:10;;;;;;;11.80;7.55;;;14.00;70.10;;;;;;5043619;28;20029;-40
2021/09/21 02:33:55;;;;;;;10.60;7.05;;;14.10;69.90;;;;;;5043559;28;20033;-40
2021/09/21 02:36:41;;;;;;;10.68;7.20;;;14.10;69.70;;;;;;5043554;28;20052;-40
2021/09/21 02:39:25;;;;;;;12.35;7.97;;;14.00;69.60;;;;;;5043548;28;20085;-40
2021/09/21 02:42:09;;;;;;;12.23;7.22;;;14.00;69.60;;;;;;5043966;28;20040;-40
2021/09/21 02:44:54;;;;;;;10.88;7.35;;;14.10;69.60;;;;;;5044159;28;20036;-40
2021/09/21 02:47:38;;;;;;;11.82;7.45;;;14.10;69.70;;;;;;5043477;28;20037;-40
2021/09/21 02:50:22;;;;;;;11.45;7.38;;;14.10;70.20;;;;;;5044200;28;20052;-40
2021/09/21 02:53:07;;;;;;;11.48;7.50;;;14.10;70.30;;;;;;5044013;28;20084;-40
2021/09/21 02:55:51;;;;;;;11.18;6.88;;;14.20;70.00;;;;;;5043899;28;20053;-40
2021/09/21 02:58:35;;;;;;;13.45;7.45;;;14.20;69.70;;;;;;5043435;28;20072;-40
2021/09/21 03:01:20;;;;;;;9.63;6.57;;;14.20;70.00;;;;;;5043416;28;20036;-40
2021/09/21 03:04:11;;;;;;;10.40;7.15;;;14.20;70.30;;;;;;5043416;28;20352;-40
2021/09/21 03:07:08;;;;;;;10.82;7.28;;;14.30;70.20;;;;;;5046177;28;20033;-40
2021/09/21 03:10:05;;;;;;;15.68;7.43;;;14.30;70.00;;;;;;5047204;28;20072;-40
2021/09/21 03:18:37;;;;;;;13.30;6.90;;;14.30;69.90;;;;;;5046989;28;20201;-39
2021/09/21 03:21:21;;;;;;;10.45;6.88;;;14.30;70.30;;;;;;5046750;28;20066;-40
2021/09/21 03:24:06;;;;;;;12.55;6.65;;;14.30;70.50;;;;;;5047087;28;20248;-40
2021/09/21 03:26:50;;;;;;;10.27;6.65;;;14.30;70.50;;;;;;5047691;28;20378;-40
2021/09/21 03:29:34;;;;;;;10.75;6.78;;;14.40;70.30;;;;;;5047258;28;20087;-40
2021/09/21 03:32:18;;;;;;;10.93;7.18;;;14.30;69.80;;;;;;5047216;28;20052;-40
2021/09/21 03:35:05;;;;;;;10.13;6.95;;;14.30;69.80;;;;;;5047116;28;20033;-39
2021/09/21 03:37:49;;;;;;;9.38;6.93;;;14.30;69.90;;;;;;5046781;28;20071;-40
2021/09/21 03:40:34;;;;;;;10.52;6.50;;;14.40;69.60;;;;;;5046804;28;20070;-40
2021/09/21 03:43:18;;;;;;;9.95;7.05;;;14.30;70.30;;;;;;5046518;28;20028;-40
2021/09/21 03:46:02;;;;;;;10.93;6.80;;;14.40;70.10;;;;;;5046672;28;20032;-40
2021/09/21 03:48:47;;;;;;;19.08;7.25;;;14.40;70.20;;;;;;5046392;28;20076;-39
2021/09/21 03:51:31;;;;;;;10.20;7.18;;;14.40;70.10;;;;;;5046370;28;20264;-40
2021/09/21 03:54:15;;;;;;;10.18;6.85;;;14.40;70.00;;;;;;5046251;28;20354;-40
2021/09/21 03:57:00;;;;;;;10.73;7.35;;;14.40;70.00;;;;;;5046692;28;20076;-40
2021/09/21 03:59:45;;;;;;;10.52;6.65;;;14.40;69.70;;;;;;5046326;28;20075;-40
2021/09/21 04:02:29;;;;;;;11.00;7.18;;;14.40;70.00;;;;;;5046703;28;20024;-40
2021/09/21 04:05:13;;;;;;;10.38;7.13;;;14.50;69.60;;;;;;5046452;28;20220;-40
2021/09/21 04:07:57;;;;;;;10.60;6.70;;;14.40;69.70;;;;;;5046351;28;20028;-40
2021/09/21 04:10:42;;;;;;;11.50;7.03;;;14.40;69.60;;;;;;5046254;28;20360;-40
2021/09/21 04:13:26;;;;;;;11.65;7.30;;;14.50;69.70;;;;;;5045968;28;20032;-40
2021/09/21 04:16:10;;;;;;;11.38;7.65;;;14.40;69.70;;;;;;5045573;28;20037;-39
2021/09/21 04:18:55;;;;;;;11.02;7.20;;;14.50;69.40;;;;;;5046262;28;20028;-40
2021/09/21 04:21:39;;;;;;;11.40;7.00;;;14.50;69.50;;;;;;5044819;28;20075;-40
2021/09/21 04:24:24;;;;;;;13.25;7.38;;;14.40;70.00;;;;;;5045596;28;20067;-40
2021/09/21 04:27:08;;;;;;;13.13;8.73;;;14.50;70.10;;;;;;5046225;28;20041;-40
2021/09/21 04:29:58;;;;;;;12.18;7.70;;;14.50;70.10;;;;;;5045790;28;20040;-40
2021/09/21 04:32:43;;;;;;;10.88;7.10;;;14.50;69.90;;;;;;5045732;28;20056;-40
2021/09/21 04:35:27;;;;;;;11.38;7.70;;;14.50;70.10;;;;;;5045584;28;20040;-40
2021/09/21 04:38:11;;;;;;;11.23;7.43;;;14.40;70.40;;;;;;5045468;28;20109;-40
2021/09/21 04:40:55;;;;;;;12.80;7.25;;;14.40;70.40;;;;;;5045253;28;20160;-40
2021/09/21 04:43:40;;;;;;;13.30;7.57;;;14.40;70.40;;;;;;5045292;28;20032;-40
2021/09/21 04:46:24;;;;;;;10.93;7.68;;;14.40;70.20;;;;;;5045314;28;20043;-40
2021/09/21 04:49:11;;;;;;;12.00;8.15;;;14.40;70.00;;;;;;5045143;28;20060;-40
2021/09/21 04:51:55;;;;;;;13.52;8.20;;;14.40;69.80;;;;;;5045281;28;20311;-40
2021/09/21 04:54:39;;;;;;;12.02;7.78;;;14.40;69.50;;;;;;5045182;28;20344;-40
2021/09/21 04:57:23;;;;;;;14.40;7.43;;;14.40;69.40;;;;;;5045428;28;20032;-40
2021/09/21 05:00:08;;;;;;;14.95;8.30;;;14.40;69.40;;;;;;5045372;28;20037;-40
2021/09/21 05:02:53;;;;;;;13.07;8.30;;;14.40;69.90;;;;;;5045034;28;20268;-40
2021/09/21 05:05:37;;;;;;;11.80;7.47;;;14.40;69.70;;;;;;5044838;28;20344;-40
2021/09/21 05:08:21;;;;;;;13.88;7.55;;;14.40;69.60;;;;;;5045168;28;20029;-39
2021/09/21 05:11:06;;;;;;;10.73;6.90;;;14.40;69.50;;;;;;5044619;28;20375;-40
2021/09/21 05:13:50;;;;;;;14.98;7.72;;;14.40;69.50;;;;;;5045030;28;20037;-40
2021/09/21 05:16:34;;;;;;;12.18;7.90;;;14.40;69.10;;;;;;5044744;28;20040;-40
2021/09/21 05:19:18;;;;;;;13.57;7.90;;;14.40;69.20;;;;;;5044743;28;20379;-40
2021/09/21 05:22:04;;;;;;;14.63;7.78;;;14.40;69.40;;;;;;5044651;28;20048;-40
2021/09/21 05:24:48;;;;;;;15.38;7.38;;;14.40;69.30;;;;;;5044329;28;20355;-40
2021/09/21 05:27:33;;;;;;;10.95;7.72;;;14.40;69.40;;;;;;5044176;28;20040;-41
2021/09/21 05:30:17;;;;;;;11.95;7.22;;;14.40;69.00;;;;;;5043935;28;20033;-40
2021/09/21 05:33:01;;;;;;;13.18;7.30;;;14.40;69.30;;;;;;5044614;28;20020;-40
2021/09/21 05:35:45;;;;;;;10.73;7.32;;;14.40;69.60;;;;;;5044385;28;20052;-40
2021/09/21 05:38:30;;;;;;;10.02;6.65;;;14.40;69.50;;;;;;5044290;28;20254;-40
2021/09/21 05:41:14;;;;;;;9.82;6.25;;;14.40;69.40;;;;;;5044388;28;20351;-40
2021/09/21 05:43:58;;;;;;;9.70;6.28;;;14.40;69.00;;;;;;5044406;28;20032;-40
2021/09/21 05:46:42;;;;;;;9.60;6.00;;;14.40;69.30;;;;;;5044493;28;20200;-40
2021/09/21 05:49:27;;;;;;;9.93;6.00;;;14.30;69.30;;;;;;5043767;28;20043;-40
2021/09/21 05:52:11;;;;;;;9.10;5.32;;;14.40;69.00;;;;;;5043836;28;20025;-40
2021/09/21 05:54:55;;;;;;;9.50;5.68;;;14.40;69.20;;;;;;5043763;28;20360;-40
2021/09/21 05:57:40;;;;;;;9.68;5.30;;;14.40;69.20;;;;;;5042908;28;20044;-40
2021/09/21 06:00:24;;;;;;;7.55;4.88;;;14.40;69.40;;;;;;5042842;28;20028;-40
2021/09/21 06:03:08;;;;;;;9.75;5.10;;;14.30;69.30;;;;;;5044128;28;20075;-40
2021/09/21 06:05:52;;;;;;;12.68;5.63;;;14.40;69.30;;;;;;5043843;28;20036;-40
2021/09/21 06:08:37;;;;;;;7.75;5.00;;;14.40;69.20;;;;;;5043714;28;20048;-40
2021/09/21 06:11:27;;;;;;;10.45;5.57;;;14.40;69.70;;;;;;5043812;28;20079;-40
2021/09/21 06:14:11;;;;;;;8.30;5.43;;;14.40;69.60;;;;;;5043696;28;20068;-39
2021/09/21 06:16:55;;;;;;;8.88;5.40;;;14.40;69.50;;;;;;5044044;28;20033;-40
2021/09/21 06:19:39;;;;;;;12.25;5.72;;;14.40;69.70;;;;;;5043928;28;20060;-40
2021/09/21 06:22:24;;;;;;;9.52;5.18;;;14.40;69.40;;;;;;5042691;28;20036;-40
2021/09/21 06:25:08;;;;;;;9.70;5.57;;;14.40;69.00;;;;;;5043547;28;20071;-40
2021/09/21 06:27:53;;;;;;;12.32;6.07;;;14.50;68.80;;;;;;5028943;28;20067;-40
2021/09/21 06:30:37;;;;;;;10.48;5.55;;;14.50;68.90;;;;;;5043490;28;20197;-41
2021/09/21 06:33:21;;;;;;;9.50;5.50;;;14.40;69.50;;;;;;5043372;28;20032;-40
2021/09/21 06:36:06;;;;;;;10.80;5.68;;;14.40;69.90;;;;;;5043801;28;20060;-40
2021/09/21 06:38:50;;;;;;;8.35;5.70;;;14.60;69.60;;;;;;5043317;28;20040;-40
2021/09/21 06:41:34;;;;;;;8.45;5.53;;;14.50;69.30;;;;;;5047495;28;20072;-40
2021/09/21 06:44:19;;;;;;;7.68;5.40;;;14.60;68.90;;;;;;5046906;28;20024;-40
2021/09/21 06:47:03;;;;;;;10.68;5.80;;;14.60;68.80;;;;;;5047049;28;20071;-41
2021/09/21 06:49:47;;;;;;;8.18;5.25;;;14.60;69.00;;;;;;5047430;28;20102;-40
2021/09/21 06:52:31;;;;;;;8.77;5.82;;;14.60;69.30;;;;;;5047457;28;20240;-40
2021/09/21 06:55:16;;;;;;;9.10;5.85;;;14.70;69.00;;;;;;5047310;28;20067;-41
2021/09/21 06:58:00;;;;;;;8.82;4.95;;;14.60;68.90;;;;;;5047331;28;20028;-41
2021/09/21 07:00:46;;;;;;;10.60;5.80;;;14.70;69.20;;;;;;5047085;28;20245;-40
2021/09/21 07:03:30;;;;;;;8.57;5.70;;;14.80;69.20;;;;;;5046957;28;20056;-40
2021/09/21 07:06:15;;;;;;;12.57;6.50;;;14.80;69.10;;;;;;5047031;28;20064;-42
2021/09/21 07:09:00;;;;;;;11.55;6.25;;;14.70;68.90;;;;;;5046485;28;20245;-40
2021/09/21 07:11:44;;;;;;;8.98;5.80;;;14.70;68.70;;;;;;5047610;28;20036;-40
2021/09/21 07:14:28;;;;;;;13.00;7.45;;;14.70;68.60;;;;;;5047409;28;20033;-40
2021/09/21 07:17:12;;;;;;;11.20;7.53;;;14.70;68.60;;;;;;5046387;28;20072;-40
2021/09/21 07:19:56;;;;;;;12.90;6.85;;;14.70;69.10;;;;;;5046753;28;20036;-41
2021/09/21 07:22:41;;;;;;;10.82;6.80;;;14.80;69.60;;;;;;5047111;28;20025;-40
2021/09/21 07:25:25;;;;;;;10.40;6.45;;;14.80;69.90;;;;;;5046793;28;20044;-40
2021/09/21 07:28:09;;;;;;;11.57;7.32;;;14.80;70.40;;;;;;5046685;28;20044;-40
2021/09/21 07:30:54;;;;;;;13.45;7.13;;;14.80;69.90;;;;;;5046779;28;20033;-41
2021/09/21 07:33:38;;;;;;;13.05;6.22;;;14.90;69.50;;;;;;5046486;28;20040;-41
2021/09/21 07:36:22;;;;;;;8.85;5.60;;;15.00;69.90;;;;;;5046498;28;20028;-40
2021/09/21 07:39:07;;;;;;;10.15;6.00;;;15.00;70.30;;;;;;5046980;28;20067;-40
2021/09/21 07:41:51;;;;;;;10.68;5.80;;;14.90;70.30;;;;;;5046500;28;20083;-40
2021/09/21 07:44:35;;;;;;;13.20;6.75;;;15.00;70.30;;;;;;5046912;28;20209;-40
2021/09/21 07:47:20;;;;;;;8.82;6.50;;;14.90;70.30;;;;;;5045886;28;20067;-40
2021/09/21 07:50:06;;;;;;;11.60;6.25;;;15.10;70.10;;;;;;5046711;28;20343;-40
2021/09/21 07:52:50;;;;;;;10.52;6.43;;;15.10;70.30;;;;;;5044462;28;20029;-40
2021/09/21 07:55:34;;;;;;;12.65;6.85;;;15.10;70.30;;;;;;5046459;28;20217;-40
2021/09/21 07:58:18;;;;;;;17.88;7.80;;;15.10;70.20;;;;;;5046069;28;20025;-41
2021/09/21 08:01:02;;;;;;;12.18;8.18;;;15.00;69.90;;;;;;5046079;28;20119;-40
2021/09/21 08:03:47;;;;;;;12.48;7.13;;;15.10;69.70;;;;;;5046068;28;20028;-41
2021/09/21 08:06:31;;;;;;;11.60;7.63;;;15.20;69.40;;;;;;5046002;28;20343;-41
2021/09/21 08:09:16;;;;;;;11.93;7.63;;;15.20;69.40;;;;;;5045973;28;20256;-41
2021/09/21 08:12:00;;;;;;;10.95;7.20;;;15.20;69.20;;;;;;5046396;28;20213;-40
2021/09/21 08:14:48;;;;;;;22.38;7.70;;;15.30;69.10;;;;;;5046095;28;20036;-40
2021/09/21 08:17:32;;;;;;;16.33;7.18;;;15.30;69.00;;;;;;5046361;28;20056;-41
2021/09/21 08:20:16;;;;;;;16.67;8.48;;;15.40;68.60;;;;;;5046257;28;20033;-40
2021/09/21 08:23:01;;;;;;;16.23;8.63;;;15.30;68.80;;;;;;5046158;28;20048;-40
2021/09/21 08:25:45;;;;;;;13.63;8.32;;;15.40;68.50;;;;;;5045723;28;20044;-40
2021/09/21 08:28:29;;;;;;;11.68;8.27;;;15.40;68.50;;;;;;5045832;28;20052;-40
2021/09/21 08:31:14;;;;;;;13.23;8.55;;;15.40;68.60;;;;;;5045986;28;20097;-41
2021/09/21 08:34:00;;;;;;;16.17;8.82;;;15.50;68.50;;;;;;5045566;28;20073;-40
2021/09/21 08:36:44;;;;;;;13.15;8.82;;;15.50;68.40;;;;;;5045763;28;20024;-40
2021/09/21 08:39:29;;;;;;;13.30;8.10;;;15.60;68.20;;;;;;5045470;28;20028;-41
2021/09/21 08:42:13;;;;;;;14.20;9.27;;;15.70;68.60;;;;;;5045764;28;20044;-41
2021/09/21 08:44:57;;;;;;;17.50;9.80;;;15.80;68.00;;;;;;5030562;28;20032;-40
2021/09/21 08:47:41;;;;;;;16.10;10.48;;;15.80;67.40;;;;;;5045424;28;20063;-40
2021/09/21 08:50:25;;;;;;;13.75;10.23;;;15.80;66.90;;;;;;5045161;28;20040;-40
2021/09/21 08:53:09;;;;;;;16.63;9.50;;;15.80;66.70;;;;;;5045077;28;20290;-41
2021/09/21 08:55:55;;;;;;;14.32;10.30;;;15.80;66.70;;;;;;5045091;28;20355;-41
2021/09/21 08:58:40;;;;;;;15.50;9.50;;;15.80;66.30;;;;;;5045019;28;20221;-40
2021/09/21 09:01:24;;;;;;;14.63;9.70;;;15.80;66.00;;;;;;5044899;28;20032;-42
2021/09/21 09:04:09;;;;;;;16.65;10.02;;;15.90;65.90;;;;;;5043927;28;20109;-41
2021/09/21 09:06:54;;;;;;;15.18;10.65;;;15.90;66.20;;;;;;5044978;28;20093;-40
2021/09/21 09:09:38;;;;;;;14.80;10.07;;;16.00;66.40;;;;;;5044959;28;20335;-41
2021/09/21 09:12:27;;;;;;;18.33;10.68;;;16.10;66.00;;;;;;5044710;28;20144;-41
2021/09/21 09:15:16;;;;;;;16.63;10.77;;;16.00;66.10;;;;;;5045178;28;20029;-40
2021/09/21 09:18:03;;;;;;;16.77;10.18;;;16.10;66.00;;;;;;5044736;28;20075;-40
2021/09/21 09:20:47;;;;;;;15.30;9.63;;;16.20;65.40;;;;;;5044544;28;20072;-41
2021/09/21 09:23:32;;;;;;;17.85;10.10;;;16.20;65.30;;;;;;5044908;28;20040;-41
2021/09/21 09:26:22;;;;;;;16.55;10.27;;;16.30;65.80;;;;;;5044879;28;20049;-40
2021/09/21 09:29:08;;;;;;;16.00;11.00;;;16.30;65.00;;;;;;5044377;28;20032;-41
2021/09/21 09:31:59;;;;;;;15.80;10.27;;;16.30;64.30;;;;;;5044419;28;20097;-41
2021/09/21 09:34:43;;;;;;;16.20;10.60;;;16.40;64.30;;;;;;5044599;28;20116;-40
2021/09/21 09:37:38;;;;;;;15.10;10.85;;;16.40;64.60;;;;;;5044557;28;20209;-41
2021/09/21 09:40:22;;;;;;;19.15;11.25;;;16.50;65.20;;;;;;5044391;28;20044;-41
2021/09/21 09:43:06;;;;;;;20.73;10.90;;;16.50;65.70;;;;;;5044336;28;20036;-40
2021/09/21 09:45:53;;;;;;;16.00;11.20;;;16.50;65.60;;;;;;5044183;28;20335;-41
2021/09/21 09:48:37;;;;;;;19.20;12.00;;;16.60;65.50;;;;;;5044104;28;20071;-41
2021/09/21 09:51:21;;;;;;;14.18;9.90;;;16.60;65.10;;;;;;5043991;28;20032;-40
2021/09/21 09:54:05;;;;;;;16.75;12.05;;;16.70;64.90;;;;;;5044432;28;20224;-41
2021/09/21 09:56:49;;;;;;;17.38;10.80;;;16.80;64.90;;;;;;5044002;28;20313;-41
2021/09/21 09:59:34;;;;;;;19.55;11.38;;;16.80;64.70;;;;;;5044519;28;20056;-40
2021/09/21 10:02:18;;;;;;;19.40;11.13;;;16.80;64.50;;;;;;5044413;28;20136;-41
2021/09/21 10:05:02;;;;;;;13.90;10.38;;;16.80;64.20;;;;;;5043863;28;20048;-42
2021/09/21 10:07:48;;;;;;;19.88;10.77;;;16.90;63.20;;;;;;5044173;28;20032;-41
2021/09/21 10:10:34;;;;;;;17.83;9.88;;;17.00;63.60;;;;;;5044346;28;20056;-40
2021/09/21 10:13:18;;;;;;;16.70;10.60;;;17.00;63.50;;;;;;5043976;28;20044;-41
2021/09/21 10:16:03;;;;;;;16.13;10.30;;;17.20;63.20;;;;;;5043447;28;20028;-41
2021/09/21 10:18:52;;;;;;;13.65;10.05;;;17.10;61.90;;;;;;5043919;28;20028;-40
2021/09/21 10:21:37;;;;;;;14.88;9.23;;;17.10;60.60;;;;;;5043670;28;20043;-40
2021/09/21 10:24:37;;;;;;;14.05;8.95;;;17.20;61.50;;;;;;5043318;28;20079;-41
2021/09/21 10:27:23;;;;;;;14.43;9.10;;;17.30;61.50;;;;;;5043632;28;20052;-42
2021/09/21 10:30:09;;;;;;;15.32;10.10;;;17.30;62.20;;;;;;5043278;28;20217;-42
2021/09/21 10:32:53;;;;;;;14.30;9.65;;;17.40;62.10;;;;;;5043662;28;20040;-41
2021/09/21 10:35:37;;;;;;;12.82;9.35;;;17.40;62.00;;;;;;5043497;28;20040;-40
2021/09/21 10:38:22;;;;;;;14.45;8.80;;;17.50;60.50;;;;;;5042962;28;20080;-41
2021/09/21 10:41:06;;;;;;;14.88;9.50;;;17.60;60.60;;;;;;5044069;28;20037;-41
2021/09/21 10:44:05;;;;;;;12.60;9.18;;;17.70;60.70;;;;;;5043670;28;20044;-41
2021/09/21 10:46:56;;;;;;;13.52;8.98;;;17.70;60.10;;;;;;5043341;28;20360;-41
2021/09/21 10:49:42;;;;;;;16.17;8.38;;;17.80;59.10;;;;;;5043892;28;20044;-41
2021/09/21 10:52:26;;;;;;;13.63;8.98;;;17.80;59.30;;;;;;5043378;28;20261;-40
2021/09/21 10:55:13;;;;;;;13.60;9.00;;;17.80;58.80;;;;;;5043362;28;20420;-40
2021/09/21 10:57:58;;;;;;;12.35;9.25;;;17.80;58.40;;;;;;5043581;28;20064;-41
2021/09/21 11:00:42;;;;;;;12.70;9.27;;;17.90;58.20;;;;;;5043281;28;20033;-40
2021/09/21 11:03:28;;;;;;;14.90;9.20;;;17.80;57.50;;;;;;5043166;28;20063;-40
2021/09/21 11:06:14;;;;;;;14.73;8.50;;;17.90;58.00;;;;;;5043602;28;20081;-41
2021/09/21 11:08:58;;;;;;;14.18;8.98;;;17.90;58.00;;;;;;5042560;28;20085;-41
2021/09/21 11:11:42;;;;;;;12.40;9.07;;;18.00;57.50;;;;;;5043563;28;20307;-41
2021/09/21 11:14:26;;;;;;;12.55;8.60;;;18.10;57.00;;;;;;5042935;28;20129;-41
2021/09/21 11:17:11;;;;;;;12.00;8.48;;;18.10;57.20;;;;;;5043218;28;20033;-41
2021/09/21 11:19:56;;;;;;;16.13;8.63;;;18.20;57.90;;;;;;5043304;28;20228;-41
2021/09/21 11:22:40;;;;;;;12.13;8.60;;;18.30;58.20;;;;;;5043189;28;20060;-41
2021/09/21 11:25:28;;;;;;;12.95;8.80;;;18.30;58.00;;;;;;5043237;28;20084;-41
2021/09/21 11:28:14;;;;;;;12.57;8.02;;;18.40;58.20;;;;;;5046025;28;20146;-42
2021/09/21 11:30:58;;;;;;;12.35;7.93;;;18.50;57.60;;;;;;5046779;28;20040;-41
2021/09/21 11:33:42;;;;;;;13.52;8.60;;;18.60;57.50;;;;;;5046907;28;20104;-41
2021/09/21 11:36:30;;;;;;;12.50;8.93;;;18.60;56.00;;;;;;5046665;28;20099;-41
2021/09/21 11:39:15;;;;;;;18.35;8.95;;;18.70;55.80;;;;;;5046457;28;20024;-41
2021/09/21 11:41:59;;;;;;;15.40;8.55;;;18.70;55.60;;;;;;5047050;28;20036;-41
2021/09/21 11:44:43;;;;;;;11.13;8.43;;;18.60;54.80;;;;;;5046736;28;20044;-41
2021/09/21 11:47:54;;;;;;;12.85;8.60;;;18.70;55.00;;;;;;5046858;28;20335;-41
2021/09/21 11:50:38;;;;;;;14.20;8.90;;;18.70;55.40;;;;;;5046490;28;20040;-41
2021/09/21 11:53:27;;;;;;;15.00;8.27;;;18.70;55.10;;;;;;5046842;28;20083;-40
2021/09/21 11:56:11;;;;;;;12.40;8.98;;;18.60;55.50;;;;;;5046834;28;20041;-40
2021/09/21 11:58:59;;;;;;;12.27;8.20;;;18.60;55.10;;;;;;5017819;28;20064;-41
2021/09/21 12:01:51;;;;;;;14.23;9.10;;;18.60;54.10;;;;;;5046295;28;20040;-41
2021/09/21 12:04:35;;;;;;;12.73;8.40;;;18.50;54.40;;;;;;5046117;28;20043;-40
2021/09/21 12:07:19;;;;;;;12.40;7.90;;;18.50;54.70;;;;;;5045948;28;20052;-40
2021/09/21 12:10:04;;;;;;;14.82;8.85;;;18.50;55.50;;;;;;5046030;28;20092;-40
2021/09/21 12:13:18;;;;;;;10.15;8.07;;;18.50;56.00;;;;;;5046060;28;20098;-40
2021/09/21 12:16:04;;;;;;;12.38;8.55;;;18.60;56.20;;;;;;5046041;28;20076;-40
2021/09/21 12:18:49;;;;;;;16.02;9.65;;;18.60;55.30;;;;;;5045882;28;20036;-40
2021/09/21 12:21:35;;;;;;;13.50;8.45;;;18.60;54.80;;;;;;5045519;28;20392;-40
2021/09/21 12:24:29;;;;;;;13.77;8.75;;;18.70;55.10;;;;;;5044462;28;20040;-40
2021/09/21 12:27:14;;;;;;;14.25;8.85;;;18.80;55.90;;;;;;5032531;28;20091;-40
2021/09/21 12:29:58;;;;;;;13.23;8.07;;;18.90;55.20;;;;;;5044701;28;20036;-41
2021/09/21 12:32:43;;;;;;;11.38;8.05;;;18.90;54.20;;;;;;5044640;28;20387;-40
2021/09/21 12:35:32;;;;;;;11.50;8.45;;;18.90;53.30;;;;;;5045862;28;20224;-40
2021/09/21 12:38:17;;;;;;;14.95;8.50;;;18.80;52.70;;;;;;5044421;28;20237;-40
2021/09/21 12:41:03;;;;;;;12.55;8.05;;;18.80;52.60;;;;;;5045567;28;20097;-40
2021/09/21 12:43:47;;;;;;;11.93;8.55;;;18.80;53.70;;;;;;5045544;28;20072;-42
2021/09/21 12:46:32;;;;;;;12.00;8.88;;;18.80;53.30;;;;;;5030683;28;20036;-40
2021/09/21 12:49:16;;;;;;;12.98;7.82;;;18.80;53.00;;;;;;5045288;28;20028;-40
2021/09/21 12:52:01;;;;;;;13.10;8.85;;;18.80;53.40;;;;;;5045341;28;20048;-40
2021/09/21 12:54:48;;;;;;;10.73;7.72;;;18.80;53.60;;;;;;5044497;28;20055;-40
2021/09/21 12:57:32;;;;;;;12.63;8.50;;;18.80;54.10;;;;;;5045140;28;20106;-40
2021/09/21 13:00:17;;;;;;;15.18;7.97;;;18.80;53.30;;;;;;5044928;28;20056;-41
2021/09/21 13:03:02;;;;;;;11.32;7.88;;;18.80;54.00;;;;;;5045377;28;20032;-40
2021/09/21 13:05:46;;;;;;;12.77;8.45;;;18.80;54.40;;;;;;5045129;28;20040;-42
2021/09/21 13:08:30;;;;;;;12.57;8.30;;;18.90;54.50;;;;;;5045486;28;20240;-40
2021/09/21 13:11:15;;;;;;;13.15;8.13;;;18.90;53.20;;;;;;5043872;28;20048;-40
2021/09/21 13:13:59;;;;;;;12.02;7.63;;;18.80;53.80;;;;;;5044690;28;20097;-40
2021/09/21 13:16:46;;;;;;;11.15;7.95;;;18.90;53.50;;;;;;5044682;28;20079;-40
2021/09/21 13:19:30;;;;;;;12.48;8.43;;;18.90;53.30;;;;;;5044800;28;20028;-40
2021/09/21 13:22:14;;;;;;;12.43;7.63;;;18.90;53.20;;;;;;5044476;28;20402;-40
2021/09/21 13:24:58;;;;;;;13.55;8.32;;;18.80;52.50;;;;;;5044502;28;20084;-40
2021/09/21 13:27:43;;;;;;;14.48;7.90;;;18.80;52.60;;;;;;5044232;28;20213;-41
2021/09/21 13:30:27;;;;;;;14.10;7.75;;;18.80;52.40;;;;;;5043845;28;20344;-41
2021/09/21 13:33:12;;;;;;;10.93;7.32;;;18.80;52.50;;;;;;5044818;28;20244;-41
2021/09/21 13:35:56;;;;;;;10.63;7.28;;;18.80;53.80;;;;;;5044514;28;20076;-40
2021/09/21 13:38:40;;;;;;;11.10;8.02;;;18.80;54.10;;;;;;5043498;28;20087;-40
2021/09/21 13:41:25;;;;;;;9.63;7.05;;;18.80;52.90;;;;;;5044560;28;20040;-40
2021/09/21 13:44:09;;;;;;;12.13;6.82;;;18.80;53.80;;;;;;5044164;28;20028;-41
2021/09/21 13:46:53;;;;;;;11.30;6.50;;;18.80;53.20;;;;;;5044426;28;20049;-41
2021/09/21 13:49:38;;;;;;;11.20;7.03;;;18.90;53.90;;;;;;5043428;28;20041;-40
2021/09/21 13:52:22;;;;;;;13.95;7.05;;;18.90;53.40;;;;;;5044256;28;20028;-40
2021/09/21 13:55:07;;;;;;;12.60;7.70;;;18.90;53.20;;;;;;5044126;28;20031;-41
2021/09/21 13:57:51;;;;;;;14.13;7.50;;;19.00;53.20;;;;;;5043995;28;20028;-40
2021/09/21 14:00:35;;;;;;;12.43;7.20;;;19.10;52.50;;;;;;5043916;28;20040;-40
2021/09/21 14:03:19;;;;;;;9.98;7.03;;;19.10;52.60;;;;;;5043770;28;20075;-41
2021/09/21 14:06:03;;;;;;;11.48;7.15;;;19.10;53.30;;;;;;5044237;28;20020;-41
2021/09/21 14:08:48;;;;;;;9.38;6.63;;;19.10;53.30;;;;;;5043948;28;20032;-41
2021/09/21 14:11:32;;;;;;;10.00;7.32;;;19.10;53.10;;;;;;5043671;28;20094;-40
2021/09/21 14:14:16;;;;;;;11.63;7.75;;;18.90;52.10;;;;;;5043596;28;20059;-40
2021/09/21 14:17:01;;;;;;;12.02;7.53;;;18.80;51.60;;;;;;5043850;28;20033;-40
2021/09/21 14:19:45;;;;;;;13.57;8.50;;;18.80;51.60;;;;;;5043889;28;20048;-40
2021/09/21 14:22:30;;;;;;;11.63;8.23;;;18.70;51.00;;;;;;5043698;28;20047;-40